createdAt,value
2022-10-15T00:03:09.352Z,45.17
2022-10-15T00:08:14.536Z,47.30
2022-10-15T00:13:19.077Z,47.73
2022-10-15T00:18:23.915Z,50.47
2022-10-15T00:23:30.199Z,51.87
2022-10-15T00:28:34.762Z,51.67
2022-10-15T00:33:39.600Z,51.43
2022-10-15T00:38:45.775Z,57.87
2022-10-15T00:43:51.487Z,52.27
2022-10-15T00:48:59.519Z,58.17
2022-10-15T00:54:06.082Z,55.40
2022-10-15T00:59:10.983Z,57.03
2022-10-15T01:04:15.272Z,79.90
2022-10-15T01:09:20.943Z,59.13
2022-10-15T01:14:33.299Z,67.83
2022-10-15T01:20:05.287Z,54.13
2022-10-15T01:25:19.995Z,56.83
2022-10-15T01:30:30.431Z,55.20
2022-10-15T01:35:45.988Z,55.90
2022-10-15T01:40:52.986Z,51.53
2022-10-15T01:46:01.041Z,52.97
2022-10-15T01:51:32.271Z,55.00
2022-10-15T01:56:37.895Z,53.60
2022-10-15T02:01:46.659Z,52.43
2022-10-15T02:06:54.302Z,57.47
2022-10-15T02:12:04.658Z,56.77
2022-10-15T02:17:10.885Z,58.43
2022-10-15T02:22:16.981Z,59.97
2022-10-15T02:27:22.654Z,51.80
2022-10-15T02:32:28.696Z,52.80
2022-10-15T02:37:33.329Z,53.70
2022-10-15T02:42:37.366Z,54.87
2022-10-15T02:47:46.359Z,56.27
2022-10-15T02:52:50.030Z,50.17
2022-10-15T02:57:54.558Z,50.27
2022-10-15T03:02:59.692Z,48.67
2022-10-15T03:08:03.521Z,51.23
2022-10-15T03:13:08.377Z,45.27
2022-10-15T03:18:21.853Z,48.73
2022-10-15T03:23:25.864Z,47.57
2022-10-15T03:28:38.964Z,59.43
2022-10-15T03:33:44.786Z,49.03
2022-10-15T03:38:49.117Z,46.67
2022-10-15T03:43:52.881Z,47.93
2022-10-15T03:48:58.208Z,44.43
2022-10-15T03:54:01.748Z,47.17
2022-10-15T03:59:05.228Z,44.50
2022-10-15T04:04:12.172Z,45.57
2022-10-15T04:09:16.675Z,45.53
2022-10-15T04:14:20.675Z,45.63
2022-10-15T04:19:26.216Z,46.33
2022-10-15T04:24:38.697Z,43.13
2022-10-15T04:29:42.737Z,44.50
2022-10-15T04:34:52.511Z,43.43
2022-10-15T04:40:05.020Z,44.27
2022-10-15T04:45:10.366Z,45.63
2022-10-15T04:50:16.959Z,45.20
2022-10-15T04:55:39.495Z,52.80
2022-10-15T05:00:44.632Z,47.87
2022-10-15T05:06:10.507Z,49.50
2022-10-15T05:11:17.691Z,52.43
2022-10-15T05:16:24.036Z,49.77
2022-10-15T05:21:31.582Z,53.93
2022-10-15T05:26:39.084Z,48.57
2022-10-15T05:31:42.917Z,60.03
2022-10-15T05:36:55.425Z,68.03
2022-10-15T05:41:58.867Z,65.47
2022-10-15T05:47:13.043Z,46.77
2022-10-15T05:52:19.262Z,45.47
2022-10-15T05:57:43.009Z,47.47
2022-10-15T06:02:46.515Z,48.70
2022-10-15T06:07:51.659Z,47.53
2022-10-15T06:12:55.660Z,47.10
2022-10-15T06:17:59.101Z,59.73
2022-10-15T06:23:05.169Z,49.60
2022-10-15T06:28:09.672Z,51.07
2022-10-15T06:33:18.488Z,50.73
2022-10-15T06:38:25.100Z,50.33
2022-10-15T06:43:31.226Z,51.77
2022-10-15T06:48:37.780Z,47.03
2022-10-15T06:53:43.943Z,53.27
2022-10-15T06:58:49.000Z,54.27
2022-10-15T07:03:53.116Z,49.83
2022-10-15T07:08:58.358Z,43.10
2022-10-15T07:14:02.699Z,46.33
2022-10-15T07:19:06.191Z,41.70
2022-10-15T07:24:11.196Z,38.23
2022-10-15T07:29:14.903Z,52.30
2022-10-15T07:34:19.035Z,38.37
2022-10-15T07:39:23.820Z,37.03
2022-10-15T07:44:27.143Z,45.97
2022-10-15T07:49:30.468Z,49.73
2022-10-15T07:54:35.467Z,34.30
2022-10-15T07:59:38.743Z,30.53
2022-10-15T08:04:42.145Z,34.87
2022-10-15T08:14:50.119Z,27.67
2022-10-15T08:19:55.443Z,33.30
2022-10-15T08:25:00.250Z,33.90
2022-10-15T08:30:03.636Z,25.00
2022-10-15T08:35:07.662Z,25.40
2022-10-15T08:40:14.223Z,25.47
2022-10-15T08:45:19.722Z,33.57
2022-10-15T08:50:31.382Z,28.43
2022-10-15T08:55:40.110Z,145.07
2022-10-15T09:00:45.783Z,33.17
2022-10-15T09:05:53.316Z,32.00
2022-10-15T09:11:01.873Z,76.67
2022-10-15T09:16:07.394Z,49.03
2022-10-15T09:21:11.863Z,135.13
2022-10-15T09:26:24.495Z,73.80
2022-10-15T09:31:31.586Z,40.37
2022-10-15T09:36:38.818Z,31.37
2022-10-15T09:41:53.802Z,23.03
2022-10-15T09:46:57.143Z,18.40
2022-10-15T09:52:03.709Z,17.27
2022-10-15T09:57:10.834Z,14.73
2022-10-15T10:02:21.330Z,14.17
2022-10-15T10:07:35.209Z,10.93
2022-10-15T10:12:39.917Z,12.70
2022-10-15T10:17:53.412Z,10.20
2022-10-15T10:22:57.982Z,11.07
2022-10-15T10:28:07.568Z,8.97
2022-10-15T10:33:14.621Z,9.50
2022-10-15T10:38:22.209Z,9.63
2022-10-15T10:43:29.376Z,10.90
2022-10-15T10:48:41.300Z,11.93
2022-10-15T10:53:54.499Z,11.00
2022-10-15T10:59:02.016Z,13.63
2022-10-15T11:09:19.996Z,23.90
2022-10-15T11:14:32.329Z,13.77
2022-10-15T11:25:14.848Z,13.75
2022-10-15T11:30:33.554Z,15.27
2022-10-15T11:35:59.049Z,14.07
2022-10-15T11:41:14.836Z,12.87
2022-10-15T11:46:24.999Z,18.52
2022-10-15T11:51:34.728Z,18.33
2022-10-15T11:56:41.643Z,29.33
2022-10-15T12:01:50.703Z,19.52
2022-10-15T12:06:55.695Z,18.87
2022-10-15T12:12:04.786Z,25.13
2022-10-15T12:17:16.936Z,16.90
2022-10-15T12:22:35.078Z,15.85
2022-10-15T12:27:38.922Z,12.40
2022-10-15T12:32:46.482Z,17.10
2022-10-15T12:37:51.140Z,10.15
2022-10-15T12:42:57.193Z,9.63
2022-10-15T12:48:36.365Z,12.23
2022-10-15T12:53:43.345Z,11.95
2022-10-15T12:58:47.540Z,20.70
2022-10-15T13:03:56.195Z,8.55
2022-10-15T13:09:06.437Z,10.23
2022-10-15T13:14:20.047Z,11.23
2022-10-15T13:19:28.123Z,11.95
2022-10-15T13:24:43.208Z,10.80
2022-10-15T13:30:02.059Z,10.57
2022-10-15T13:35:12.737Z,11.77
2022-10-15T13:40:21.020Z,10.90
2022-10-15T13:45:24.302Z,15.15
2022-10-15T13:50:30.939Z,13.88
2022-10-15T13:55:36.393Z,12.30
2022-10-15T14:00:39.915Z,11.73
2022-10-15T14:05:45.576Z,15.07
2022-10-15T14:10:49.732Z,13.35
2022-10-15T14:15:57.982Z,15.85
2022-10-15T14:21:03.283Z,11.07
2022-10-15T14:26:06.846Z,13.93
2022-10-15T14:31:10.258Z,18.97
2022-10-15T14:36:25.477Z,36.93
2022-10-15T14:41:30.902Z,24.27
2022-10-15T14:46:40.576Z,20.27
2022-10-15T14:51:45.378Z,15.98
2022-10-15T14:56:50.618Z,21.48
2022-10-15T15:01:58.520Z,18.20
2022-10-15T15:07:13.432Z,17.17
2022-10-15T15:12:26.987Z,19.73
2022-10-15T15:17:31.900Z,25.17
2022-10-15T15:22:37.893Z,26.27
2022-10-15T15:27:41.445Z,33.83
2022-10-15T15:32:44.945Z,22.83
2022-10-15T15:37:49.860Z,24.83
2022-10-15T15:42:53.313Z,26.50
2022-10-15T15:47:58.898Z,29.17
2022-10-15T15:53:04.476Z,35.03
2022-10-15T15:58:07.864Z,30.38
2022-10-15T16:03:13.096Z,27.53
2022-10-15T16:08:18.269Z,26.10
2022-10-15T16:13:23.431Z,22.73
2022-10-15T16:18:26.783Z,29.30
2022-10-15T16:23:31.670Z,32.23
2022-10-15T16:28:35.077Z,32.33
2022-10-15T16:33:38.568Z,36.13
2022-10-15T16:38:44.491Z,30.23
2022-10-15T16:43:48.855Z,29.70
2022-10-15T16:48:55.803Z,40.93
2022-10-15T16:54:00.696Z,32.53
2022-10-15T16:59:04.027Z,32.27
2022-10-15T17:04:07.370Z,36.37
2022-10-15T17:09:12.199Z,34.00
2022-10-15T17:14:16.967Z,33.10
2022-10-15T17:19:23.717Z,32.43
2022-10-15T17:24:28.528Z,34.00
2022-10-15T17:29:33.603Z,30.00
2022-10-15T17:34:37.260Z,39.97
2022-10-15T17:39:42.296Z,112.33
2022-10-15T17:44:45.752Z,38.10
2022-10-15T17:49:49.311Z,41.63
2022-10-15T17:54:54.318Z,28.43
2022-10-15T17:59:57.879Z,24.90
2022-10-15T18:05:02.172Z,26.77
2022-10-15T18:10:09.434Z,39.23
2022-10-15T18:15:12.907Z,42.03
2022-10-15T18:20:16.474Z,32.17
2022-10-15T18:25:23.568Z,31.03
2022-10-15T18:30:27.010Z,26.20
2022-10-15T18:35:30.500Z,47.47
2022-10-15T18:40:40.058Z,46.93
2022-10-15T18:45:47.381Z,22.23
2022-10-15T18:50:53.513Z,73.87
2022-10-15T18:55:59.065Z,33.80
2022-10-15T19:01:11.889Z,25.00
2022-10-15T19:06:15.624Z,20.77
2022-10-15T19:11:23.882Z,20.50
2022-10-15T19:16:27.365Z,19.37
2022-10-15T19:21:37.597Z,17.50
2022-10-15T19:26:42.712Z,17.47
2022-10-15T19:31:48.125Z,19.58
2022-10-15T19:36:51.952Z,18.93
2022-10-15T19:41:56.868Z,21.77
2022-10-15T19:47:00.212Z,24.17
2022-10-15T19:52:03.601Z,20.70
2022-10-15T19:57:08.928Z,18.53
2022-10-15T20:02:14.932Z,17.30
2022-10-15T20:07:18.413Z,15.23
2022-10-15T20:12:24.663Z,14.63
2022-10-15T20:17:29.186Z,14.97
2022-10-15T20:22:33.150Z,14.80
2022-10-15T20:27:38.998Z,15.03
2022-10-15T20:38:51.981Z,14.87
2022-10-15T20:44:25.930Z,14.23
2022-10-15T20:49:33.399Z,18.03
2022-10-15T20:55:51.545Z,18.27
2022-10-15T21:00:56.513Z,14.87
2022-10-15T21:06:00.266Z,17.03
2022-10-15T21:11:04.817Z,15.10
2022-10-15T21:16:10.771Z,13.23
2022-10-15T21:21:15.497Z,14.17
2022-10-15T21:26:19.709Z,13.03
2022-10-15T21:31:25.470Z,14.30
2022-10-15T21:36:30.373Z,15.27
2022-10-15T21:41:35.707Z,26.90
2022-10-15T21:46:42.850Z,15.07
2022-10-15T21:51:46.420Z,14.60
2022-10-15T21:56:50.703Z,13.67
2022-10-15T22:01:56.072Z,22.10
2022-10-15T22:06:59.603Z,16.87
2022-10-15T22:12:03.267Z,18.17
2022-10-15T22:17:08.132Z,23.40
2022-10-15T22:22:11.664Z,15.70
2022-10-15T22:27:15.188Z,17.27
2022-10-15T22:32:20.253Z,19.27
2022-10-15T22:37:23.679Z,24.93
2022-10-15T22:42:27.575Z,18.53
2022-10-15T22:47:32.968Z,21.70
2022-10-15T22:52:41.631Z,21.23
